createdAt,value
2023-09-05T00:00:11.856Z,0.60
2023-09-05T00:02:39.365Z,0.70
2023-09-05T00:05:09.184Z,0.80
2023-09-05T00:07:36.698Z,1.20
2023-09-05T00:10:04.918Z,0.93
2023-09-05T00:12:31.964Z,0.60
2023-09-05T00:14:59.191Z,0.57
2023-09-05T00:17:25.871Z,0.63
2023-09-05T00:19:52.689Z,0.50
2023-09-05T00:22:20.451Z,0.57
2023-09-05T00:24:46.990Z,0.60
2023-09-05T00:27:14.117Z,0.63
2023-09-05T00:29:40.760Z,0.77
2023-09-05T00:32:07.454Z,0.60
2023-09-05T00:34:35.300Z,0.60
2023-09-05T00:37:02.045Z,0.80
2023-09-05T00:39:29.304Z,0.70
2023-09-05T00:41:57.342Z,0.60
2023-09-05T00:44:24.786Z,0.70
2023-09-05T00:46:51.618Z,0.50
2023-09-05T00:49:18.033Z,0.60
2023-09-05T00:51:45.460Z,0.60
2023-09-05T00:54:12.105Z,0.50
2023-09-05T00:56:38.642Z,0.60
2023-09-05T00:59:05.821Z,0.50
2023-09-05T01:01:32.343Z,0.40
2023-09-05T01:03:58.999Z,0.50
2023-09-05T01:06:38.707Z,0.60
2023-09-05T01:09:09.988Z,0.60
2023-09-05T01:11:36.535Z,0.50
2023-09-05T01:14:03.096Z,0.50
2023-09-05T01:16:29.490Z,0.50
2023-09-05T01:18:55.926Z,0.50
2023-09-05T01:21:31.820Z,0.60
2023-09-05T01:24:12.483Z,0.70
2023-09-05T01:26:39.868Z,0.60
2023-09-05T01:29:06.617Z,0.60
2023-09-05T01:31:33.238Z,0.50
2023-09-05T01:33:59.819Z,0.70
2023-09-05T01:36:26.246Z,1.00
2023-09-05T01:38:52.697Z,0.60
2023-09-05T01:41:19.164Z,0.57
2023-09-05T01:43:45.618Z,0.60
2023-09-05T01:46:12.225Z,0.70
2023-09-05T01:48:39.108Z,0.50
2023-09-05T01:51:05.835Z,0.63
2023-09-05T01:53:32.272Z,0.50
2023-09-05T01:56:01.646Z,0.70
2023-09-05T01:58:28.095Z,0.50
2023-09-05T02:00:54.531Z,0.60
2023-09-05T02:03:21.068Z,0.50
2023-09-05T02:05:47.525Z,0.50
2023-09-05T02:08:13.955Z,0.60
2023-09-05T02:10:40.440Z,0.50
2023-09-05T02:13:06.928Z,0.60
2023-09-05T02:15:33.343Z,0.70
2023-09-05T02:18:02.037Z,0.97
2023-09-05T02:20:28.830Z,0.60
2023-09-05T02:22:55.292Z,1.00
2023-09-05T02:25:22.195Z,0.80
2023-09-05T02:27:48.613Z,0.60
2023-09-05T02:30:15.172Z,0.50
2023-09-05T02:32:44.493Z,0.50
2023-09-05T02:35:13.358Z,0.60
2023-09-05T02:37:40.188Z,1.00
2023-09-05T02:40:08.394Z,0.70
2023-09-05T02:42:34.884Z,0.93
2023-09-05T02:45:01.357Z,0.50
2023-09-05T02:47:27.819Z,0.50
2023-09-05T02:49:54.321Z,0.60
2023-09-05T02:52:24.658Z,0.60
2023-09-05T02:54:56.593Z,0.67
2023-09-05T02:57:23.259Z,0.60
2023-09-05T02:59:56.085Z,0.70
2023-09-05T03:02:25.859Z,0.47
2023-09-05T03:04:55.869Z,0.60
2023-09-05T03:07:22.391Z,0.77
2023-09-05T03:09:52.333Z,0.67
2023-09-05T03:12:19.056Z,0.67
2023-09-05T03:14:46.445Z,0.70
2023-09-05T03:17:13.005Z,0.63
2023-09-05T03:19:40.140Z,0.50
2023-09-05T03:22:07.401Z,0.60
2023-09-05T03:24:35.026Z,0.60
2023-09-05T03:27:03.439Z,0.60
2023-09-05T03:29:29.927Z,0.50
2023-09-05T03:31:56.612Z,1.03
2023-09-05T03:34:23.627Z,0.60
2023-09-05T03:36:50.364Z,0.80
2023-09-05T03:39:17.134Z,0.87
2023-09-05T03:41:43.567Z,0.60
2023-09-05T03:44:10.032Z,0.60
2023-09-05T03:46:36.503Z,0.77
2023-09-05T03:49:03.091Z,0.80
2023-09-05T03:51:30.893Z,0.93
2023-09-05T03:53:59.918Z,0.73
2023-09-05T03:56:26.854Z,0.60
2023-09-05T03:58:53.273Z,0.67
2023-09-05T04:01:19.970Z,0.63
2023-09-05T04:03:49.379Z,0.70
2023-09-05T04:06:15.903Z,0.80
2023-09-05T04:08:42.485Z,0.60
2023-09-05T04:11:09.157Z,0.60
2023-09-05T04:13:35.669Z,0.53
2023-09-05T04:16:04.623Z,0.67
2023-09-05T04:18:31.101Z,0.70
2023-09-05T04:20:59.192Z,0.67
2023-09-05T04:23:26.461Z,0.70
2023-09-05T04:25:58.151Z,0.60
2023-09-05T04:28:25.485Z,0.70
2023-09-05T04:30:52.442Z,0.60
2023-09-05T04:33:18.953Z,0.60
2023-09-05T04:35:45.588Z,0.70
2023-09-05T04:38:12.073Z,0.60
2023-09-05T04:40:38.507Z,0.60
2023-09-05T04:43:05.192Z,0.60
2023-09-05T04:45:31.646Z,0.60
2023-09-05T04:47:58.131Z,0.67
2023-09-05T04:50:24.855Z,1.17
2023-09-05T04:52:51.357Z,0.67
2023-09-05T04:55:17.887Z,0.80
2023-09-05T04:57:44.375Z,0.60
2023-09-05T05:00:14.686Z,0.60
2023-09-05T05:02:41.387Z,0.90
2023-09-05T05:05:08.256Z,0.70
2023-09-05T05:07:34.904Z,0.80
2023-09-05T05:10:01.343Z,0.53
2023-09-05T05:12:27.772Z,0.60
2023-09-05T05:14:54.254Z,0.60
2023-09-05T05:17:20.695Z,0.50
2023-09-05T05:19:47.225Z,0.60
2023-09-05T05:22:13.822Z,0.63
2023-09-05T05:24:40.355Z,0.77
2023-09-05T05:27:07.398Z,0.70
2023-09-05T05:29:34.300Z,0.87
2023-09-05T05:32:04.352Z,0.60
2023-09-05T05:34:31.318Z,0.60
2023-09-05T05:36:58.315Z,0.63
2023-09-05T05:39:26.518Z,0.80
2023-09-05T05:41:53.000Z,0.77
2023-09-05T05:44:19.584Z,0.70
2023-09-05T05:46:46.072Z,0.70
2023-09-05T05:49:12.514Z,0.60
2023-09-05T05:51:40.776Z,0.60
2023-09-05T05:54:08.392Z,0.70
2023-09-05T05:56:35.892Z,0.80
2023-09-05T05:59:02.456Z,0.70
2023-09-05T06:01:28.999Z,0.60
2023-09-05T06:03:56.369Z,0.70
2023-09-05T06:06:22.901Z,0.87
2023-09-05T06:08:49.399Z,0.70
2023-09-05T06:11:15.913Z,0.90
2023-09-05T06:13:42.374Z,0.60
2023-09-05T06:16:08.885Z,0.70
2023-09-05T06:18:35.439Z,0.80
2023-09-05T06:21:01.937Z,0.60
2023-09-05T06:23:28.455Z,0.70
2023-09-05T06:25:54.886Z,0.60
2023-09-05T06:28:21.627Z,0.60
2023-09-05T06:30:48.237Z,0.70
2023-09-05T06:33:15.864Z,0.80
2023-09-05T06:35:42.659Z,0.60
2023-09-05T06:38:09.277Z,1.00
2023-09-05T06:40:35.739Z,0.60
2023-09-05T06:43:02.226Z,0.60
2023-09-05T06:45:28.699Z,0.60
2023-09-05T06:47:55.381Z,0.73
2023-09-05T06:50:22.904Z,0.80
2023-09-05T06:52:49.839Z,2.30
2023-09-05T06:55:16.514Z,0.50
2023-09-05T06:57:43.398Z,1.70
2023-09-05T07:00:11.174Z,0.70
2023-09-05T07:02:37.601Z,0.50
2023-09-05T07:05:04.509Z,1.00
2023-09-05T07:07:31.020Z,0.70
2023-09-05T07:09:57.457Z,0.50
2023-09-05T07:12:24.158Z,0.70
2023-09-05T07:14:50.708Z,0.70
2023-09-05T07:17:17.146Z,0.80
2023-09-05T07:19:43.762Z,0.60
2023-09-05T07:22:10.220Z,0.43
2023-09-05T07:24:38.086Z,0.57
2023-09-05T07:27:05.679Z,0.60
2023-09-05T07:29:33.887Z,0.60
2023-09-05T07:32:00.336Z,0.60
2023-09-05T07:34:27.380Z,0.70
2023-09-05T07:36:56.050Z,0.70
2023-09-05T07:39:22.529Z,0.60
2023-09-05T07:41:49.018Z,0.63
2023-09-05T07:44:15.438Z,0.50
2023-09-05T07:46:41.869Z,0.60
2023-09-05T07:49:08.351Z,0.60
2023-09-05T07:51:34.863Z,0.60
2023-09-05T07:54:04.433Z,0.60
2023-09-05T07:56:31.396Z,0.50
2023-09-05T07:58:57.877Z,0.70
2023-09-05T08:01:25.053Z,0.50
2023-09-05T08:03:52.085Z,0.63
2023-09-05T08:06:18.737Z,0.63
2023-09-05T08:08:45.214Z,0.77
2023-09-05T08:11:11.704Z,0.40
2023-09-05T08:13:38.164Z,0.60
2023-09-05T08:16:04.989Z,0.70
2023-09-05T08:18:31.764Z,0.53
2023-09-05T08:20:59.172Z,0.50
2023-09-05T08:23:25.688Z,0.40
2023-09-05T08:25:52.643Z,0.53
2023-09-05T08:28:22.113Z,0.60
2023-09-05T08:30:48.665Z,0.60
2023-09-05T08:33:15.238Z,0.43
2023-09-05T08:35:42.599Z,0.70
2023-09-05T08:38:09.066Z,0.60
2023-09-05T08:40:36.162Z,0.50
2023-09-05T08:43:03.582Z,0.50
2023-09-05T08:45:30.759Z,0.63
2023-09-05T08:47:58.794Z,0.40
2023-09-05T08:50:27.350Z,0.40
2023-09-05T08:52:54.483Z,0.53
2023-09-05T08:55:21.463Z,0.40
2023-09-05T08:57:48.736Z,0.50
2023-09-05T09:00:18.198Z,0.50
2023-09-05T09:02:44.854Z,0.47
2023-09-05T09:05:11.313Z,0.50
2023-09-05T09:07:37.797Z,0.50
2023-09-05T09:10:21.733Z,0.70
2023-09-05T09:12:55.356Z,0.60
2023-09-05T09:15:25.241Z,0.40
2023-09-05T09:17:52.540Z,0.73
2023-09-05T09:20:20.064Z,0.32
2023-09-05T09:22:46.927Z,0.40
2023-09-05T09:25:21.588Z,0.40
2023-09-05T09:27:54.902Z,0.40
2023-09-05T09:30:27.243Z,0.50
2023-09-05T09:32:54.175Z,0.75
2023-09-05T09:35:21.319Z,0.50
2023-09-05T09:37:47.936Z,0.43
2023-09-05T09:40:17.926Z,0.52
2023-09-05T09:42:51.264Z,0.40
2023-09-05T09:45:18.461Z,0.40
2023-09-05T09:47:48.359Z,0.50
2023-09-05T09:50:15.225Z,0.40
2023-09-05T09:52:45.336Z,0.30
2023-09-05T09:55:17.737Z,0.30
2023-09-05T09:57:47.419Z,0.40
2023-09-05T10:00:16.871Z,0.40
2023-09-05T10:02:46.364Z,0.40
2023-09-05T10:05:13.316Z,0.50
2023-09-05T10:07:39.759Z,0.40
2023-09-05T10:10:07.025Z,0.55
2023-09-05T10:12:33.523Z,0.45
2023-09-05T10:14:59.956Z,0.60
2023-09-05T10:17:26.508Z,0.30
2023-09-05T10:19:53.107Z,0.50
2023-09-05T10:22:19.917Z,0.40
2023-09-05T10:24:46.459Z,0.68
2023-09-05T10:27:12.953Z,0.30
2023-09-05T10:29:45.542Z,0.52
2023-09-05T10:32:19.176Z,0.75
2023-09-05T10:34:48.765Z,0.80
2023-09-05T10:37:15.342Z,0.57
2023-09-05T10:39:48.586Z,0.47
2023-09-05T10:42:15.597Z,0.50
2023-09-05T10:44:42.917Z,0.45
2023-09-05T10:47:33.085Z,0.52
2023-09-05T10:49:59.964Z,0.50
2023-09-05T10:52:30.996Z,0.38
2023-09-05T10:54:58.900Z,0.30
2023-09-05T10:57:35.499Z,0.40
2023-09-05T11:00:19.098Z,0.50
2023-09-05T11:02:48.732Z,0.20
2023-09-05T11:05:19.534Z,0.30
2023-09-05T11:07:47.080Z,0.30
2023-09-05T11:10:25.822Z,0.38
2023-09-05T11:12:52.403Z,0.20
2023-09-05T11:15:32.278Z,0.20
2023-09-05T11:18:02.600Z,0.40
2023-09-05T11:20:44.652Z,0.20
2023-09-05T11:23:22.402Z,0.20
2023-09-05T11:25:52.107Z,0.30
2023-09-05T11:28:18.806Z,0.10
2023-09-05T11:30:46.418Z,0.38
2023-09-05T11:33:16.921Z,0.10
2023-09-05T11:35:44.150Z,0.13
2023-09-05T11:38:10.913Z,0.15
2023-09-05T11:40:38.478Z,0.38
2023-09-05T11:43:06.850Z,0.10
2023-09-05T11:45:38.384Z,0.20
2023-09-05T11:48:16.090Z,0.10
2023-09-05T11:50:44.852Z,0.20
2023-09-05T11:53:16.286Z,0.28
2023-09-05T11:55:42.939Z,0.10
2023-09-05T11:58:10.724Z,0.25
2023-09-05T12:00:45.608Z,0.52
2023-09-05T12:03:16.673Z,0.38
2023-09-05T12:05:44.191Z,0.20
2023-09-05T12:08:18.547Z,0.25
2023-09-05T12:10:57.032Z,0.30
2023-09-05T12:13:41.928Z,0.10
2023-09-05T12:16:09.569Z,0.10
2023-09-05T12:18:36.197Z,0.20
2023-09-05T12:21:02.902Z,0.20
2023-09-05T12:23:29.421Z,0.22
2023-09-05T12:25:58.921Z,0.10
2023-09-05T12:28:26.730Z,0.10
2023-09-05T12:30:56.267Z,0.77
2023-09-05T12:33:22.829Z,0.10
2023-09-05T12:35:49.507Z,0.20
2023-09-05T12:38:16.043Z,0.05
2023-09-05T12:40:44.988Z,0.30
2023-09-05T12:43:11.461Z,0.13
2023-09-05T12:45:37.900Z,0.10
2023-09-05T12:48:04.805Z,0.10
2023-09-05T12:50:32.034Z,0.10
2023-09-05T12:53:06.216Z,0.30
2023-09-05T12:55:34.150Z,0.20
2023-09-05T12:58:04.490Z,0.17
2023-09-05T13:00:34.589Z,0.55
2023-09-05T13:03:06.863Z,0.10
2023-09-05T13:05:33.380Z,0.22
2023-09-05T13:08:00.422Z,0.10
2023-09-05T13:10:27.276Z,0.20
2023-09-05T13:12:55.601Z,0.10
2023-09-05T13:15:23.633Z,0.10
2023-09-05T13:17:50.184Z,0.10
2023-09-05T13:20:19.180Z,0.10
2023-09-05T13:22:49.240Z,0.10
2023-09-05T13:25:17.204Z,0.10
2023-09-05T13:27:43.627Z,0.35
2023-09-05T13:30:11.190Z,0.20
2023-09-05T13:32:38.092Z,0.10
2023-09-05T13:35:04.894Z,0.47
2023-09-05T13:37:31.326Z,0.13
2023-09-05T13:39:57.935Z,0.20
2023-09-05T13:42:24.568Z,0.10
2023-09-05T13:44:51.042Z,0.10
2023-09-05T13:47:17.526Z,0.20
2023-09-05T13:49:43.982Z,0.45
2023-09-05T13:52:10.887Z,0.10
2023-09-05T13:54:38.847Z,0.20
2023-09-05T13:57:05.709Z,0.10
2023-09-05T13:59:32.226Z,0.20
2023-09-05T14:01:58.792Z,0.22
2023-09-05T14:04:25.323Z,0.10
2023-09-05T14:06:52.471Z,0.15
2023-09-05T14:09:18.941Z,0.10
2023-09-05T14:11:45.597Z,0.20
2023-09-05T14:14:16.665Z,0.20
2023-09-05T14:16:46.902Z,0.10
2023-09-05T14:19:13.492Z,0.10
2023-09-05T14:21:40.052Z,0.10
2023-09-05T14:24:07.145Z,0.10
2023-09-05T14:26:33.655Z,0.22
2023-09-05T14:29:01.902Z,0.15
2023-09-05T14:31:28.445Z,0.10
2023-09-05T14:33:55.122Z,0.10
2023-09-05T14:36:21.808Z,0.10
2023-09-05T14:38:48.357Z,0.10
2023-09-05T14:41:14.803Z,0.17
2023-09-05T14:43:41.385Z,0.10
2023-09-05T14:46:07.897Z,0.10
2023-09-05T14:48:34.713Z,0.10
2023-09-05T14:51:03.717Z,0.10
2023-09-05T14:53:30.150Z,0.20
2023-09-05T14:55:56.621Z,0.15
2023-09-05T14:58:23.093Z,0.20
2023-09-05T15:00:49.598Z,0.03
2023-09-05T15:03:16.229Z,0.10
2023-09-05T15:05:43.217Z,0.10
2023-09-05T15:08:09.720Z,0.15
2023-09-05T15:10:36.181Z,0.20
2023-09-05T15:13:02.822Z,0.20
2023-09-05T15:15:29.353Z,0.10
2023-09-05T15:17:57.081Z,0.10
2023-09-05T15:20:23.554Z,0.20
2023-09-05T15:22:50.270Z,0.10
2023-09-05T15:25:18.058Z,0.20
2023-09-05T15:27:45.146Z,0.15
2023-09-05T15:30:14.048Z,0.10
2023-09-05T15:32:40.848Z,0.00
2023-09-05T15:35:08.170Z,0.22
2023-09-05T15:37:34.760Z,0.13
2023-09-05T15:40:05.991Z,0.10
2023-09-05T15:42:33.168Z,0.20
2023-09-05T15:44:59.749Z,0.10
2023-09-05T15:47:27.618Z,0.10
2023-09-05T15:49:54.152Z,0.20
2023-09-05T15:52:20.664Z,0.20
2023-09-05T15:54:47.624Z,0.25
2023-09-05T15:57:14.422Z,0.10
2023-09-05T15:59:45.003Z,0.30
2023-09-05T16:02:15.032Z,0.20
2023-09-05T16:04:41.650Z,0.10
2023-09-05T16:07:10.430Z,0.10
2023-09-05T16:09:38.273Z,0.10
2023-09-05T16:12:05.462Z,0.10
2023-09-05T16:14:32.012Z,0.10
2023-09-05T16:16:58.482Z,0.10
2023-09-05T16:19:25.575Z,0.10
2023-09-05T16:21:52.963Z,0.10
2023-09-05T16:24:19.885Z,0.10
2023-09-05T16:26:47.300Z,0.10
2023-09-05T16:29:14.248Z,0.20
2023-09-05T16:31:40.854Z,0.10
2023-09-05T16:34:07.491Z,0.10
2023-09-05T16:36:34.908Z,0.10
2023-09-05T16:39:04.307Z,0.10
2023-09-05T16:41:31.445Z,0.10
2023-09-05T16:43:58.568Z,0.10
2023-09-05T16:46:25.666Z,0.10
2023-09-05T16:48:52.216Z,0.10
2023-09-05T16:51:21.425Z,0.40
2023-09-05T16:53:47.979Z,0.30
2023-09-05T16:56:14.978Z,0.40
2023-09-05T16:58:41.543Z,0.10
2023-09-05T17:01:08.090Z,0.10
2023-09-05T17:03:34.787Z,0.10
2023-09-05T17:06:04.498Z,0.35
2023-09-05T17:08:31.027Z,0.32
2023-09-05T17:10:57.952Z,0.13
2023-09-05T17:13:24.571Z,0.20
2023-09-05T17:15:51.166Z,0.10
2023-09-05T17:18:20.156Z,0.28
2023-09-05T17:20:51.655Z,0.10
2023-09-05T17:23:19.041Z,0.10
2023-09-05T17:25:45.624Z,0.30
2023-09-05T17:28:12.162Z,0.20
2023-09-05T17:30:39.399Z,0.17
2023-09-05T17:33:09.878Z,0.10
2023-09-05T17:35:37.250Z,0.10
2023-09-05T17:38:04.058Z,0.10
2023-09-05T17:40:30.540Z,0.10
2023-09-05T17:42:57.001Z,0.15
2023-09-05T17:45:25.272Z,0.40
2023-09-05T17:47:51.822Z,0.25
2023-09-05T17:50:18.336Z,0.30
2023-09-05T17:52:44.782Z,0.10
2023-09-05T17:55:11.244Z,0.10
2023-09-05T17:57:37.762Z,0.30
2023-09-05T18:00:05.002Z,0.13
2023-09-05T18:02:31.532Z,0.35
2023-09-05T18:04:58.386Z,0.10
2023-09-05T18:07:24.829Z,0.40
2023-09-05T18:09:54.606Z,0.20
2023-09-05T18:12:21.218Z,0.20
2023-09-05T18:14:47.725Z,0.20
2023-09-05T18:17:14.149Z,0.10
2023-09-05T18:19:47.262Z,0.15
2023-09-05T18:22:13.908Z,0.47
2023-09-05T18:24:42.255Z,0.10
2023-09-05T18:27:09.030Z,0.15
2023-09-05T18:29:35.474Z,0.10
2023-09-05T18:32:01.990Z,0.20
2023-09-05T18:34:38.924Z,0.30
2023-09-05T18:37:08.290Z,0.20
2023-09-05T18:39:35.022Z,0.20
2023-09-05T18:42:06.252Z,0.40
2023-09-05T18:44:34.111Z,0.20
2023-09-05T18:47:03.904Z,0.20
2023-09-05T18:49:33.446Z,0.20
2023-09-05T18:52:01.601Z,0.20
2023-09-05T18:54:28.233Z,0.30
2023-09-05T18:56:55.765Z,0.43
2023-09-05T18:59:26.280Z,0.20
2023-09-05T19:01:53.578Z,0.40
2023-09-05T19:04:20.293Z,0.30
2023-09-05T19:06:46.857Z,0.20
2023-09-05T19:09:13.907Z,0.40
2023-09-05T19:11:40.966Z,0.40
2023-09-05T19:14:07.413Z,0.50
2023-09-05T19:16:33.850Z,0.43
2023-09-05T19:19:00.379Z,0.30
2023-09-05T19:21:26.847Z,0.30
2023-09-05T19:23:53.323Z,0.20
2023-09-05T19:26:19.898Z,0.30
2023-09-05T19:28:46.747Z,0.30
2023-09-05T19:31:14.463Z,0.30
2023-09-05T19:33:41.163Z,0.30
2023-09-05T19:36:07.724Z,0.30
2023-09-05T19:38:34.176Z,0.40
2023-09-05T19:41:07.182Z,0.20
2023-09-05T19:43:34.349Z,0.30
2023-09-05T19:46:00.939Z,0.30
2023-09-05T19:48:28.248Z,0.25
2023-09-05T19:50:58.104Z,0.35
2023-09-05T19:53:24.651Z,0.70
2023-09-05T19:55:51.229Z,0.30
2023-09-05T19:58:18.835Z,0.30
2023-09-05T20:00:46.312Z,0.50
2023-09-05T20:03:13.729Z,0.25
2023-09-05T20:05:41.121Z,0.30
2023-09-05T20:08:07.606Z,0.45
2023-09-05T20:10:34.525Z,0.40
2023-09-05T20:13:00.986Z,0.30
2023-09-05T20:15:27.481Z,0.45
2023-09-05T20:17:54.059Z,0.30
2023-09-05T20:20:20.616Z,0.38
2023-09-05T20:22:47.137Z,0.35
2023-09-05T20:25:13.575Z,0.32
2023-09-05T20:27:40.198Z,0.30
2023-09-05T20:30:08.353Z,0.20
2023-09-05T20:32:34.916Z,0.45
2023-09-05T20:35:01.465Z,0.40
2023-09-05T20:37:28.005Z,0.50
2023-09-05T20:39:54.465Z,0.50
2023-09-05T20:42:20.961Z,0.30
2023-09-05T20:44:48.276Z,0.40
2023-09-05T20:47:15.144Z,0.30
2023-09-05T20:49:41.766Z,0.50
2023-09-05T20:52:08.702Z,0.25
2023-09-05T20:54:35.232Z,0.40
2023-09-05T20:57:01.749Z,0.40
2023-09-05T20:59:28.354Z,0.32
2023-09-05T21:01:54.901Z,0.30
2023-09-05T21:04:21.573Z,0.47
2023-09-05T21:06:48.235Z,0.30
2023-09-05T21:09:18.798Z,0.45
2023-09-05T21:11:45.370Z,0.38
2023-09-05T21:14:11.836Z,0.30
2023-09-05T21:16:38.373Z,0.30
2023-09-05T21:19:04.928Z,0.50
2023-09-05T21:21:33.328Z,0.40
2023-09-05T21:23:59.818Z,0.40
2023-09-05T21:26:26.370Z,0.50
2023-09-05T21:28:52.827Z,0.30
2023-09-05T21:31:19.534Z,0.60
2023-09-05T21:33:46.222Z,0.60
2023-09-05T21:36:12.692Z,0.50
2023-09-05T21:38:39.124Z,0.47
2023-09-05T21:41:05.675Z,0.65
2023-09-05T21:43:32.715Z,0.45
2023-09-05T21:45:59.330Z,0.30
2023-09-05T21:48:26.289Z,0.50
2023-09-05T21:50:53.057Z,0.50
2023-09-05T21:53:19.567Z,0.50
2023-09-05T21:55:46.034Z,0.30
2023-09-05T21:58:12.475Z,0.47
2023-09-05T22:00:47.050Z,0.30
2023-09-05T22:03:13.672Z,0.60
2023-09-05T22:05:40.394Z,0.30
2023-09-05T22:08:07.811Z,0.50
2023-09-05T22:10:35.110Z,0.38
2023-09-05T22:13:02.423Z,0.47
2023-09-05T22:15:29.562Z,0.30
2023-09-05T22:17:56.118Z,0.50
2023-09-05T22:20:23.820Z,0.45
2023-09-05T22:22:50.815Z,0.40
2023-09-05T22:25:17.293Z,0.55
2023-09-05T22:27:43.942Z,0.40
2023-09-05T22:30:14.819Z,0.40
2023-09-05T22:32:41.366Z,0.40
2023-09-05T22:35:10.947Z,0.43
2023-09-05T22:37:40.514Z,0.52
2023-09-05T22:40:13.265Z,0.77
2023-09-05T22:42:40.423Z,0.50
2023-09-05T22:45:08.897Z,0.40
2023-09-05T22:47:35.416Z,0.40
2023-09-05T22:50:02.247Z,0.40
2023-09-05T22:52:28.719Z,0.55
2023-09-05T22:54:55.294Z,0.73
2023-09-05T22:57:21.869Z,0.40
2023-09-05T22:59:48.513Z,0.60
2023-09-05T23:02:14.974Z,0.52
2023-09-05T23:04:41.468Z,0.50
2023-09-05T23:07:08.682Z,0.60
2023-09-05T23:09:35.204Z,0.40
2023-09-05T23:12:04.697Z,0.40
2023-09-05T23:14:31.363Z,0.50
2023-09-05T23:16:58.007Z,0.57
2023-09-05T23:19:24.919Z,0.50
2023-09-05T23:21:51.677Z,0.40
2023-09-05T23:24:18.216Z,0.50
2023-09-05T23:26:45.038Z,0.57
2023-09-05T23:29:11.680Z,0.47
2023-09-05T23:31:39.461Z,0.87
2023-09-05T23:34:06.002Z,0.43
2023-09-05T23:36:32.624Z,0.30
2023-09-05T23:39:01.108Z,0.50
2023-09-05T23:41:28.581Z,0.50
2023-09-05T23:43:56.950Z,0.60
2023-09-05T23:46:23.840Z,0.50
2023-09-05T23:48:52.368Z,0.43
2023-09-05T23:51:19.750Z,0.60
2023-09-05T23:53:46.935Z,0.50
2023-09-05T23:56:13.665Z,0.50
2023-09-05T23:58:40.210Z,0.60
